sensor_id;sensor_type;location;lat;lon;timestamp;temperature;humidity
8988;DHT22;4529;51.360;12.474;2023-08-01T00:03:10;18.20;99.90
8988;DHT22;4529;51.360;12.474;2023-08-01T00:08:13;18.20;99.90
8988;DHT22;4529;51.360;12.474;2023-08-01T00:13:16;18.20;99.90
8988;DHT22;4529;51.360;12.474;2023-08-01T00:18:20;18.20;99.90
8988;DHT22;4529;51.360;12.474;2023-08-01T00:23:24;18.10;99.90
8988;DHT22;4529;51.360;12.474;2023-08-01T00:28:27;18.20;99.90
8988;DHT22;4529;51.360;12.474;2023-08-01T00:33:30;18.20;99.90
8988;DHT22;4529;51.360;12.474;2023-08-01T00:38:37;18.10;99.90
8988;DHT22;4529;51.360;12.474;2023-08-01T00:43:40;18.20;99.90
8988;DHT22;4529;51.360;12.474;2023-08-01T00:48:44;18.10;99.90
8988;DHT22;4529;51.360;12.474;2023-08-01T00:53:48;18.10;99.90
8988;DHT22;4529;51.360;12.474;2023-08-01T00:58:53;18.10;99.90
8988;DHT22;4529;51.360;12.474;2023-08-01T01:03:57;18.00;99.90
8988;DHT22;4529;51.360;12.474;2023-08-01T01:09:01;18.00;99.90
8988;DHT22;4529;51.360;12.474;2023-08-01T01:14:05;18.10;99.90
8988;DHT22;4529;51.360;12.474;2023-08-01T01:19:09;18.00;99.90
8988;DHT22;4529;51.360;12.474;2023-08-01T01:24:13;18.00;99.90
8988;DHT22;4529;51.360;12.474;2023-08-01T01:29:17;18.00;99.90
8988;DHT22;4529;51.360;12.474;2023-08-01T01:34:22;18.00;99.90
8988;DHT22;4529;51.360;12.474;2023-08-01T01:39:26;18.00;99.90
8988;DHT22;4529;51.360;12.474;2023-08-01T01:44:30;18.00;99.90
8988;DHT22;4529;51.360;12.474;2023-08-01T01:49:33;18.00;99.90
8988;DHT22;4529;51.360;12.474;2023-08-01T01:54:37;18.00;99.90
8988;DHT22;4529;51.360;12.474;2023-08-01T01:59:41;18.10;99.90
8988;DHT22;4529;51.360;12.474;2023-08-01T02:04:45;18.00;99.90
8988;DHT22;4529;51.360;12.474;2023-08-01T02:09:48;18.00;99.90
8988;DHT22;4529;51.360;12.474;2023-08-01T02:14:51;17.90;99.90
8988;DHT22;4529;51.360;12.474;2023-08-01T02:19:55;17.90;99.90
8988;DHT22;4529;51.360;12.474;2023-08-01T02:24:59;17.80;99.90
8988;DHT22;4529;51.360;12.474;2023-08-01T02:30:02;17.70;99.90
8988;DHT22;4529;51.360;12.474;2023-08-01T02:35:06;17.70;99.90
8988;DHT22;4529;51.360;12.474;2023-08-01T02:40:10;17.70;99.90
8988;DHT22;4529;51.360;12.474;2023-08-01T02:45:13;17.80;99.90
8988;DHT22;4529;51.360;12.474;2023-08-01T02:50:16;17.70;99.90
8988;DHT22;4529;51.360;12.474;2023-08-01T02:55:20;17.70;99.90
8988;DHT22;4529;51.360;12.474;2023-08-01T03:00:23;17.70;99.90
8988;DHT22;4529;51.360;12.474;2023-08-01T03:05:27;17.70;99.90
8988;DHT22;4529;51.360;12.474;2023-08-01T03:10:30;17.70;99.90
8988;DHT22;4529;51.360;12.474;2023-08-01T03:15:34;17.70;99.90
8988;DHT22;4529;51.360;12.474;2023-08-01T03:20:37;17.70;99.90
8988;DHT22;4529;51.360;12.474;2023-08-01T03:25:41;17.70;99.90
8988;DHT22;4529;51.360;12.474;2023-08-01T03:30:44;17.70;99.90
8988;DHT22;4529;51.360;12.474;2023-08-01T03:35:47;17.70;99.90
8988;DHT22;4529;51.360;12.474;2023-08-01T03:40:51;17.70;99.90
8988;DHT22;4529;51.360;12.474;2023-08-01T03:45:54;17.70;99.90
8988;DHT22;4529;51.360;12.474;2023-08-01T03:50:58;17.70;99.90
8988;DHT22;4529;51.360;12.474;2023-08-01T03:56:01;17.70;99.90
8988;DHT22;4529;51.360;12.474;2023-08-01T04:01:05;17.70;99.90
8988;DHT22;4529;51.360;12.474;2023-08-01T04:06:09;17.70;99.90
8988;DHT22;4529;51.360;12.474;2023-08-01T04:11:13;17.70;99.90
8988;DHT22;4529;51.360;12.474;2023-08-01T04:16:16;17.70;99.90
8988;DHT22;4529;51.360;12.474;2023-08-01T04:21:20;17.70;99.90
8988;DHT22;4529;51.360;12.474;2023-08-01T04:26:23;17.80;99.90
8988;DHT22;4529;51.360;12.474;2023-08-01T04:31:27;17.70;99.90
8988;DHT22;4529;51.360;12.474;2023-08-01T04:36:30;17.80;99.90
8988;DHT22;4529;51.360;12.474;2023-08-01T04:41:34;17.80;99.90
8988;DHT22;4529;51.360;12.474;2023-08-01T04:46:37;17.80;99.90
8988;DHT22;4529;51.360;12.474;2023-08-01T04:51:40;17.80;99.90
8988;DHT22;4529;51.360;12.474;2023-08-01T04:56:44;17.80;99.90
8988;DHT22;4529;51.360;12.474;2023-08-01T05:01:47;17.80;99.90
8988;DHT22;4529;51.360;12.474;2023-08-01T05:06:51;17.80;99.90
8988;DHT22;4529;51.360;12.474;2023-08-01T05:11:54;17.90;99.90
8988;DHT22;4529;51.360;12.474;2023-08-01T05:16:58;17.90;99.90
8988;DHT22;4529;51.360;12.474;2023-08-01T05:22:01;17.90;99.90
8988;DHT22;4529;51.360;12.474;2023-08-01T05:27:05;17.80;99.90
8988;DHT22;4529;51.360;12.474;2023-08-01T05:32:08;17.80;99.90
8988;DHT22;4529;51.360;12.474;2023-08-01T05:37:13;17.80;99.90
8988;DHT22;4529;51.360;12.474;2023-08-01T05:42:17;17.80;99.90
8988;DHT22;4529;51.360;12.474;2023-08-01T05:47:21;17.80;99.90
8988;DHT22;4529;51.360;12.474;2023-08-01T05:52:25;17.80;99.90
8988;DHT22;4529;51.360;12.474;2023-08-01T05:57:30;17.80;99.90
8988;DHT22;4529;51.360;12.474;2023-08-01T06:02:33;17.90;99.90
8988;DHT22;4529;51.360;12.474;2023-08-01T06:07:37;17.80;99.90
8988;DHT22;4529;51.360;12.474;2023-08-01T06:12:40;17.90;99.90
8988;DHT22;4529;51.360;12.474;2023-08-01T06:17:44;17.90;99.90
8988;DHT22;4529;51.360;12.474;2023-08-01T06:22:47;17.90;99.90
8988;DHT22;4529;51.360;12.474;2023-08-01T06:27:50;17.90;99.90
8988;DHT22;4529;51.360;12.474;2023-08-01T06:32:54;17.90;99.90
8988;DHT22;4529;51.360;12.474;2023-08-01T06:37:57;18.00;99.90
8988;DHT22;4529;51.360;12.474;2023-08-01T06:43:01;18.00;99.90
8988;DHT22;4529;51.360;12.474;2023-08-01T06:48:04;18.00;99.90
8988;DHT22;4529;51.360;12.474;2023-08-01T06:53:08;18.10;99.90
8988;DHT22;4529;51.360;12.474;2023-08-01T06:58:11;18.10;99.90
8988;DHT22;4529;51.360;12.474;2023-08-01T07:03:15;18.10;99.90
8988;DHT22;4529;51.360;12.474;2023-08-01T07:08:18;18.20;99.90
8988;DHT22;4529;51.360;12.474;2023-08-01T07:13:22;18.20;99.90
8988;DHT22;4529;51.360;12.474;2023-08-01T07:18:25;18.20;99.90
8988;DHT22;4529;51.360;12.474;2023-08-01T07:23:29;18.20;99.90
8988;DHT22;4529;51.360;12.474;2023-08-01T07:28:32;18.20;99.90
8988;DHT22;4529;51.360;12.474;2023-08-01T07:33:36;18.30;99.90
8988;DHT22;4529;51.360;12.474;2023-08-01T07:38:40;18.30;99.90
8988;DHT22;4529;51.360;12.474;2023-08-01T07:43:44;18.20;99.90
8988;DHT22;4529;51.360;12.474;2023-08-01T07:48:49;18.20;99.90
8988;DHT22;4529;51.360;12.474;2023-08-01T07:53:53;18.10;99.90
8988;DHT22;4529;51.360;12.474;2023-08-01T07:58:57;18.10;99.90
8988;DHT22;4529;51.360;12.474;2023-08-01T08:04:00;18.10;99.90
8988;DHT22;4529;51.360;12.474;2023-08-01T08:09:05;18.10;99.90
8988;DHT22;4529;51.360;12.474;2023-08-01T08:14:08;18.00;99.90
8988;DHT22;4529;51.360;12.474;2023-08-01T08:19:11;18.10;99.90
8988;DHT22;4529;51.360;12.474;2023-08-01T08:24:15;18.00;99.90
8988;DHT22;4529;51.360;12.474;2023-08-01T08:29:18;18.10;99.90
8988;DHT22;4529;51.360;12.474;2023-08-01T08:34:22;18.10;99.90
8988;DHT22;4529;51.360;12.474;2023-08-01T08:39:25;18.20;99.90
8988;DHT22;4529;51.360;12.474;2023-08-01T08:44:29;18.30;99.90
8988;DHT22;4529;51.360;12.474;2023-08-01T08:49:32;18.40;99.90
8988;DHT22;4529;51.360;12.474;2023-08-01T08:54:36;18.50;99.90
8988;DHT22;4529;51.360;12.474;2023-08-01T08:59:39;18.50;99.90
8988;DHT22;4529;51.360;12.474;2023-08-01T09:04:43;18.50;99.90
8988;DHT22;4529;51.360;12.474;2023-08-01T09:09:46;18.60;99.90
8988;DHT22;4529;51.360;12.474;2023-08-01T09:14:52;18.60;99.90
8988;DHT22;4529;51.360;12.474;2023-08-01T09:20:05;18.60;99.90
8988;DHT22;4529;51.360;12.474;2023-08-01T09:25:08;18.60;99.90
8988;DHT22;4529;51.360;12.474;2023-08-01T09:30:12;18.60;99.90
8988;DHT22;4529;51.360;12.474;2023-08-01T09:35:15;18.70;99.90
8988;DHT22;4529;51.360;12.474;2023-08-01T09:40:19;18.90;99.90
8988;DHT22;4529;51.360;12.474;2023-08-01T09:45:22;19.00;99.90
8988;DHT22;4529;51.360;12.474;2023-08-01T09:50:26;19.30;99.90
8988;DHT22;4529;51.360;12.474;2023-08-01T09:55:34;19.30;99.90
8988;DHT22;4529;51.360;12.474;2023-08-01T10:00:38;19.30;99.90
8988;DHT22;4529;51.360;12.474;2023-08-01T10:05:42;19.20;99.90
8988;DHT22;4529;51.360;12.474;2023-08-01T10:10:46;19.10;99.90
8988;DHT22;4529;51.360;12.474;2023-08-01T10:15:53;18.90;99.90
8988;DHT22;4529;51.360;12.474;2023-08-01T10:20:56;18.90;99.90
8988;DHT22;4529;51.360;12.474;2023-08-01T10:26:00;18.80;99.90
8988;DHT22;4529;51.360;12.474;2023-08-01T10:31:13;18.60;99.90
8988;DHT22;4529;51.360;12.474;2023-08-01T10:36:24;18.60;99.90
8988;DHT22;4529;51.360;12.474;2023-08-01T10:41:36;18.40;99.90
8988;DHT22;4529;51.360;12.474;2023-08-01T10:46:53;18.50;99.90
8988;DHT22;4529;51.360;12.474;2023-08-01T10:51:55;18.50;99.90
8988;DHT22;4529;51.360;12.474;2023-08-01T10:56:59;18.50;99.90
8988;DHT22;4529;51.360;12.474;2023-08-01T11:02:02;18.60;99.90
8988;DHT22;4529;51.360;12.474;2023-08-01T11:07:06;18.80;99.90
8988;DHT22;4529;51.360;12.474;2023-08-01T11:12:09;18.90;99.90
8988;DHT22;4529;51.360;12.474;2023-08-01T11:17:13;19.10;99.90
8988;DHT22;4529;51.360;12.474;2023-08-01T11:22:16;19.00;99.90
8988;DHT22;4529;51.360;12.474;2023-08-01T11:27:20;19.10;99.90
8988;DHT22;4529;51.360;12.474;2023-08-01T11:32:32;19.30;99.90
8988;DHT22;4529;51.360;12.474;2023-08-01T11:37:26;19.30;99.90
8988;DHT22;4529;51.360;12.474;2023-08-01T11:42:33;19.50;99.90
8988;DHT22;4529;51.360;12.474;2023-08-01T11:47:36;19.60;99.90
8988;DHT22;4529;51.360;12.474;2023-08-01T11:52:40;19.70;99.90
8988;DHT22;4529;51.360;12.474;2023-08-01T11:57:50;20.10;99.90
8988;DHT22;4529;51.360;12.474;2023-08-01T12:02:47;20.20;99.90
8988;DHT22;4529;51.360;12.474;2023-08-01T12:07:50;20.20;99.90
8988;DHT22;4529;51.360;12.474;2023-08-01T12:12:53;20.40;99.90
8988;DHT22;4529;51.360;12.474;2023-08-01T12:17:57;20.50;99.90
8988;DHT22;4529;51.360;12.474;2023-08-01T12:23:00;20.70;99.90
8988;DHT22;4529;51.360;12.474;2023-08-01T12:28:04;20.80;99.90
8988;DHT22;4529;51.360;12.474;2023-08-01T12:33:08;21.00;99.90
8988;DHT22;4529;51.360;12.474;2023-08-01T12:38:12;21.20;99.90
8988;DHT22;4529;51.360;12.474;2023-08-01T12:43:15;21.20;99.90
8988;DHT22;4529;51.360;12.474;2023-08-01T12:48:19;21.40;99.90
8988;DHT22;4529;51.360;12.474;2023-08-01T12:53:22;21.60;99.90
8988;DHT22;4529;51.360;12.474;2023-08-01T12:58:25;21.70;99.90
8988;DHT22;4529;51.360;12.474;2023-08-01T13:03:29;21.60;99.90
8988;DHT22;4529;51.360;12.474;2023-08-01T13:08:32;21.90;99.90
8988;DHT22;4529;51.360;12.474;2023-08-01T13:13:36;21.80;99.90
8988;DHT22;4529;51.360;12.474;2023-08-01T13:18:40;21.80;99.90
8988;DHT22;4529;51.360;12.474;2023-08-01T13:23:43;22.10;99.90
8988;DHT22;4529;51.360;12.474;2023-08-01T13:28:46;22.10;99.90
8988;DHT22;4529;51.360;12.474;2023-08-01T13:33:50;22.00;99.90
8988;DHT22;4529;51.360;12.474;2023-08-01T13:38:54;21.50;99.90
8988;DHT22;4529;51.360;12.474;2023-08-01T13:43:58;21.40;99.90
8988;DHT22;4529;51.360;12.474;2023-08-01T13:49:02;21.30;99.90
8988;DHT22;4529;51.360;12.474;2023-08-01T13:54:06;21.20;99.90
8988;DHT22;4529;51.360;12.474;2023-08-01T13:59:10;21.20;99.90
8988;DHT22;4529;51.360;12.474;2023-08-01T14:04:14;21.20;99.90
8988;DHT22;4529;51.360;12.474;2023-08-01T14:09:19;21.10;99.90
8988;DHT22;4529;51.360;12.474;2023-08-01T14:14:23;21.10;99.90
8988;DHT22;4529;51.360;12.474;2023-08-01T14:19:27;20.90;99.90
8988;DHT22;4529;51.360;12.474;2023-08-01T14:24:31;20.40;99.90
8988;DHT22;4529;51.360;12.474;2023-08-01T14:29:35;19.90;99.90
8988;DHT22;4529;51.360;12.474;2023-08-01T14:34:39;19.60;99.90
8988;DHT22;4529;51.360;12.474;2023-08-01T14:39:44;19.70;99.90
8988;DHT22;4529;51.360;12.474;2023-08-01T14:44:54;19.90;99.90
8988;DHT22;4529;51.360;12.474;2023-08-01T14:49:57;19.90;99.90
8988;DHT22;4529;51.360;12.474;2023-08-01T14:55:01;20.20;99.90
8988;DHT22;4529;51.360;12.474;2023-08-01T15:00:04;20.40;99.90
8988;DHT22;4529;51.360;12.474;2023-08-01T15:05:08;20.50;99.90
8988;DHT22;4529;51.360;12.474;2023-08-01T15:10:12;20.90;99.90
8988;DHT22;4529;51.360;12.474;2023-08-01T15:15:16;20.90;99.90
8988;DHT22;4529;51.360;12.474;2023-08-01T15:20:20;21.00;99.90
8988;DHT22;4529;51.360;12.474;2023-08-01T15:25:24;21.00;99.90
8988;DHT22;4529;51.360;12.474;2023-08-01T15:30:28;20.90;99.90
8988;DHT22;4529;51.360;12.474;2023-08-01T15:35:32;20.90;99.90
8988;DHT22;4529;51.360;12.474;2023-08-01T15:40:36;20.90;99.90
8988;DHT22;4529;51.360;12.474;2023-08-01T15:45:39;21.00;99.90
8988;DHT22;4529;51.360;12.474;2023-08-01T15:50:43;21.00;99.90
8988;DHT22;4529;51.360;12.474;2023-08-01T15:55:52;21.10;99.90
8988;DHT22;4529;51.360;12.474;2023-08-01T16:00:51;21.10;99.90
8988;DHT22;4529;51.360;12.474;2023-08-01T16:05:55;21.00;99.90
8988;DHT22;4529;51.360;12.474;2023-08-01T16:10:58;20.90;99.90
8988;DHT22;4529;51.360;12.474;2023-08-01T16:16:02;20.90;99.90
8988;DHT22;4529;51.360;12.474;2023-08-01T16:21:05;20.80;99.90
8988;DHT22;4529;51.360;12.474;2023-08-01T16:26:09;20.70;99.90
8988;DHT22;4529;51.360;12.474;2023-08-01T16:31:12;20.70;99.90
8988;DHT22;4529;51.360;12.474;2023-08-01T16:36:16;20.70;99.90
8988;DHT22;4529;51.360;12.474;2023-08-01T16:41:19;20.80;99.90
8988;DHT22;4529;51.360;12.474;2023-08-01T16:46:23;20.80;99.90
8988;DHT22;4529;51.360;12.474;2023-08-01T16:51:26;20.80;99.90
8988;DHT22;4529;51.360;12.474;2023-08-01T16:56:30;20.80;99.90
8988;DHT22;4529;51.360;12.474;2023-08-01T17:01:33;20.70;99.90
8988;DHT22;4529;51.360;12.474;2023-08-01T17:06:36;20.80;99.90
8988;DHT22;4529;51.360;12.474;2023-08-01T17:11:40;20.90;99.90
8988;DHT22;4529;51.360;12.474;2023-08-01T17:16:43;20.90;99.90
8988;DHT22;4529;51.360;12.474;2023-08-01T17:21:47;20.80;99.90
8988;DHT22;4529;51.360;12.474;2023-08-01T17:26:50;20.60;99.90
8988;DHT22;4529;51.360;12.474;2023-08-01T17:31:54;20.50;99.90
8988;DHT22;4529;51.360;12.474;2023-08-01T17:36:57;20.50;99.90
8988;DHT22;4529;51.360;12.474;2023-08-01T17:42:01;20.40;99.90
8988;DHT22;4529;51.360;12.474;2023-08-01T17:47:04;20.30;99.90
8988;DHT22;4529;51.360;12.474;2023-08-01T17:52:08;20.30;99.90
8988;DHT22;4529;51.360;12.474;2023-08-01T17:57:11;20.20;99.90
8988;DHT22;4529;51.360;12.474;2023-08-01T18:02:15;20.20;99.90
8988;DHT22;4529;51.360;12.474;2023-08-01T18:07:18;20.20;99.90
8988;DHT22;4529;51.360;12.474;2023-08-01T18:12:22;20.10;99.90
8988;DHT22;4529;51.360;12.474;2023-08-01T18:17:26;19.90;99.90
8988;DHT22;4529;51.360;12.474;2023-08-01T18:22:30;19.80;99.90
8988;DHT22;4529;51.360;12.474;2023-08-01T18:27:34;19.70;99.90
8988;DHT22;4529;51.360;12.474;2023-08-01T18:32:38;19.70;99.90
8988;DHT22;4529;51.360;12.474;2023-08-01T18:37:42;19.50;99.90
8988;DHT22;4529;51.360;12.474;2023-08-01T18:42:46;19.50;99.90
8988;DHT22;4529;51.360;12.474;2023-08-01T18:47:50;19.50;99.90
8988;DHT22;4529;51.360;12.474;2023-08-01T18:52:55;19.50;99.90
8988;DHT22;4529;51.360;12.474;2023-08-01T18:57:59;19.50;99.90
8988;DHT22;4529;51.360;12.474;2023-08-01T19:03:03;19.40;99.90
8988;DHT22;4529;51.360;12.474;2023-08-01T19:08:07;19.40;99.90
8988;DHT22;4529;51.360;12.474;2023-08-01T19:13:11;19.30;99.90
8988;DHT22;4529;51.360;12.474;2023-08-01T19:18:15;19.30;99.90
8988;DHT22;4529;51.360;12.474;2023-08-01T19:23:19;19.20;99.90
8988;DHT22;4529;51.360;12.474;2023-08-01T19:28:23;19.20;99.90
8988;DHT22;4529;51.360;12.474;2023-08-01T19:33:28;19.10;99.90
8988;DHT22;4529;51.360;12.474;2023-08-01T19:38:31;19.10;99.90
8988;DHT22;4529;51.360;12.474;2023-08-01T19:43:34;19.10;99.90
8988;DHT22;4529;51.360;12.474;2023-08-01T19:48:38;19.00;99.90
8988;DHT22;4529;51.360;12.474;2023-08-01T19:53:41;18.90;99.90
8988;DHT22;4529;51.360;12.474;2023-08-01T19:58:45;18.80;99.90
8988;DHT22;4529;51.360;12.474;2023-08-01T20:03:48;18.70;99.90
8988;DHT22;4529;51.360;12.474;2023-08-01T20:08:52;18.70;99.90
8988;DHT22;4529;51.360;12.474;2023-08-01T20:13:55;18.50;99.90
8988;DHT22;4529;51.360;12.474;2023-08-01T20:18:59;18.50;99.90
8988;DHT22;4529;51.360;12.474;2023-08-01T20:24:02;18.40;99.90
8988;DHT22;4529;51.360;12.474;2023-08-01T20:29:06;18.30;99.90
8988;DHT22;4529;51.360;12.474;2023-08-01T20:34:09;18.20;99.90
8988;DHT22;4529;51.360;12.474;2023-08-01T20:39:13;18.20;99.90
8988;DHT22;4529;51.360;12.474;2023-08-01T20:44:17;18.10;99.90
8988;DHT22;4529;51.360;12.474;2023-08-01T20:49:21;18.20;99.90
8988;DHT22;4529;51.360;12.474;2023-08-01T20:54:25;18.20;99.90
8988;DHT22;4529;51.360;12.474;2023-08-01T20:59:29;18.10;99.90
8988;DHT22;4529;51.360;12.474;2023-08-01T21:04:33;18.10;99.90
8988;DHT22;4529;51.360;12.474;2023-08-01T21:09:37;18.10;99.90
8988;DHT22;4529;51.360;12.474;2023-08-01T21:14:42;18.10;99.90
8988;DHT22;4529;51.360;12.474;2023-08-01T21:19:46;18.10;99.90
8988;DHT22;4529;51.360;12.474;2023-08-01T21:24:50;18.10;99.90
8988;DHT22;4529;51.360;12.474;2023-08-01T21:29:54;18.10;99.90
8988;DHT22;4529;51.360;12.474;2023-08-01T21:34:58;18.10;99.90
8988;DHT22;4529;51.360;12.474;2023-08-01T21:40:02;18.10;99.90
8988;DHT22;4529;51.360;12.474;2023-08-01T21:45:07;18.10;99.90
8988;DHT22;4529;51.360;12.474;2023-08-01T21:50:10;18.10;99.90
8988;DHT22;4529;51.360;12.474;2023-08-01T21:55:14;18.10;99.90
8988;DHT22;4529;51.360;12.474;2023-08-01T22:00:17;18.00;99.90
8988;DHT22;4529;51.360;12.474;2023-08-01T22:05:20;17.90;99.90
8988;DHT22;4529;51.360;12.474;2023-08-01T22:10:24;17.80;99.90
8988;DHT22;4529;51.360;12.474;2023-08-01T22:15:27;17.80;99.90
8988;DHT22;4529;51.360;12.474;2023-08-01T22:20:31;17.80;99.90
8988;DHT22;4529;51.360;12.474;2023-08-01T22:25:35;17.70;99.90
8988;DHT22;4529;51.360;12.474;2023-08-01T22:30:39;17.70;99.90
8988;DHT22;4529;51.360;12.474;2023-08-01T22:35:43;17.70;99.90
8988;DHT22;4529;51.360;12.474;2023-08-01T22:40:47;17.70;99.90
8988;DHT22;4529;51.360;12.474;2023-08-01T22:45:56;17.70;99.90
8988;DHT22;4529;51.360;12.474;2023-08-01T22:50:59;17.80;99.90
8988;DHT22;4529;51.360;12.474;2023-08-01T22:56:03;17.80;99.90
8988;DHT22;4529;51.360;12.474;2023-08-01T23:01:09;17.80;99.90
8988;DHT22;4529;51.360;12.474;2023-08-01T23:06:18;17.80;99.90
8988;DHT22;4529;51.360;12.474;2023-08-01T23:11:21;17.80;99.90
8988;DHT22;4529;51.360;12.474;2023-08-01T23:16:24;17.80;99.90
8988;DHT22;4529;51.360;12.474;2023-08-01T23:21:29;17.80;99.90
8988;DHT22;4529;51.360;12.474;2023-08-01T23:26:33;17.80;99.90
8988;DHT22;4529;51.360;12.474;2023-08-01T23:31:35;17.80;99.90
8988;DHT22;4529;51.360;12.474;2023-08-01T23:36:40;17.80;99.90
8988;DHT22;4529;51.360;12.474;2023-08-01T23:41:44;17.90;99.90
8988;DHT22;4529;51.360;12.474;2023-08-01T23:46:48;17.90;99.90
8988;DHT22;4529;51.360;12.474;2023-08-01T23:51:52;17.90;99.90
8988;DHT22;4529;51.360;12.474;2023-08-01T23:56:56;17.90;99.90
